sensor_id;sensor_type;location;lat;lon;timestamp;temperature;humidity
36594;DHT22;22603;47.900;8.146;2023-09-12T00:01:33;13.70;99.90
36594;DHT22;22603;47.900;8.146;2023-09-12T00:04:19;13.70;99.90
36594;DHT22;22603;47.900;8.146;2023-09-12T00:07:07;13.70;99.90
36594;DHT22;22603;47.900;8.146;2023-09-12T00:09:55;13.70;99.90
36594;DHT22;22603;47.900;8.146;2023-09-12T00:12:41;13.70;99.90
36594;DHT22;22603;47.900;8.146;2023-09-12T00:15:28;13.70;99.90
36594;DHT22;22603;47.900;8.146;2023-09-12T00:18:15;13.60;99.90
36594;DHT22;22603;47.900;8.146;2023-09-12T00:21:03;13.60;99.90
36594;DHT22;22603;47.900;8.146;2023-09-12T00:23:50;13.50;99.90
36594;DHT22;22603;47.900;8.146;2023-09-12T00:26:38;13.50;99.90
36594;DHT22;22603;47.900;8.146;2023-09-12T00:29:24;13.50;99.90
36594;DHT22;22603;47.900;8.146;2023-09-12T00:32:11;13.50;99.90
36594;DHT22;22603;47.900;8.146;2023-09-12T00:34:58;13.40;99.90
36594;DHT22;22603;47.900;8.146;2023-09-12T00:37:44;13.40;99.90
36594;DHT22;22603;47.900;8.146;2023-09-12T00:40:31;13.40;99.90
36594;DHT22;22603;47.900;8.146;2023-09-12T00:43:19;13.40;99.90
36594;DHT22;22603;47.900;8.146;2023-09-12T00:46:06;13.40;99.90
36594;DHT22;22603;47.900;8.146;2023-09-12T00:48:53;13.30;99.90
36594;DHT22;22603;47.900;8.146;2023-09-12T00:51:42;13.30;99.90
36594;DHT22;22603;47.900;8.146;2023-09-12T00:54:31;13.30;99.90
36594;DHT22;22603;47.900;8.146;2023-09-12T00:57:18;13.20;99.90
36594;DHT22;22603;47.900;8.146;2023-09-12T01:00:12;13.20;99.90
36594;DHT22;22603;47.900;8.146;2023-09-12T01:02:59;13.20;99.90
36594;DHT22;22603;47.900;8.146;2023-09-12T01:05:46;13.20;99.90
36594;DHT22;22603;47.900;8.146;2023-09-12T01:08:34;13.20;99.90
36594;DHT22;22603;47.900;8.146;2023-09-12T01:11:24;13.20;99.90
36594;DHT22;22603;47.900;8.146;2023-09-12T01:14:11;13.10;99.90
36594;DHT22;22603;47.900;8.146;2023-09-12T01:16:59;13.00;99.90
36594;DHT22;22603;47.900;8.146;2023-09-12T01:19:47;13.10;99.90
36594;DHT22;22603;47.900;8.146;2023-09-12T01:26:16;13.10;99.90
36594;DHT22;22603;47.900;8.146;2023-09-12T01:29:06;13.10;99.90
36594;DHT22;22603;47.900;8.146;2023-09-12T01:31:55;13.10;99.90
36594;DHT22;22603;47.900;8.146;2023-09-12T01:34:42;13.10;99.90
36594;DHT22;22603;47.900;8.146;2023-09-12T01:37:28;13.10;99.90
36594;DHT22;22603;47.900;8.146;2023-09-12T01:40:17;13.10;99.90
36594;DHT22;22603;47.900;8.146;2023-09-12T01:43:06;13.10;99.90
36594;DHT22;22603;47.900;8.146;2023-09-12T01:45:57;13.00;99.90
36594;DHT22;22603;47.900;8.146;2023-09-12T01:48:46;13.00;99.90
36594;DHT22;22603;47.900;8.146;2023-09-12T01:51:37;13.10;99.90
36594;DHT22;22603;47.900;8.146;2023-09-12T01:54:23;13.10;99.90
36594;DHT22;22603;47.900;8.146;2023-09-12T01:57:11;13.20;99.90
36594;DHT22;22603;47.900;8.146;2023-09-12T01:59:59;13.20;99.90
36594;DHT22;22603;47.900;8.146;2023-09-12T02:02:47;13.30;99.90
36594;DHT22;22603;47.900;8.146;2023-09-12T02:05:34;13.30;99.90
36594;DHT22;22603;47.900;8.146;2023-09-12T02:08:21;13.40;99.90
36594;DHT22;22603;47.900;8.146;2023-09-12T02:11:08;13.40;99.90
36594;DHT22;22603;47.900;8.146;2023-09-12T02:13:54;13.50;99.90
36594;DHT22;22603;47.900;8.146;2023-09-12T02:16:41;13.50;99.90
36594;DHT22;22603;47.900;8.146;2023-09-12T02:19:30;13.50;99.90
36594;DHT22;22603;47.900;8.146;2023-09-12T02:22:17;13.60;99.90
36594;DHT22;22603;47.900;8.146;2023-09-12T02:25:06;13.60;99.90
36594;DHT22;22603;47.900;8.146;2023-09-12T02:27:53;13.60;99.90
36594;DHT22;22603;47.900;8.146;2023-09-12T02:30:39;13.60;99.90
36594;DHT22;22603;47.900;8.146;2023-09-12T02:33:27;13.60;99.90
36594;DHT22;22603;47.900;8.146;2023-09-12T02:36:15;13.60;99.90
36594;DHT22;22603;47.900;8.146;2023-09-12T02:39:02;13.70;99.90
36594;DHT22;22603;47.900;8.146;2023-09-12T02:41:49;13.70;99.90
36594;DHT22;22603;47.900;8.146;2023-09-12T02:44:36;13.70;99.90
36594;DHT22;22603;47.900;8.146;2023-09-12T02:47:23;13.70;99.90
36594;DHT22;22603;47.900;8.146;2023-09-12T02:50:09;13.80;99.90
36594;DHT22;22603;47.900;8.146;2023-09-12T02:52:58;13.80;99.90
36594;DHT22;22603;47.900;8.146;2023-09-12T02:55:44;13.70;99.90
36594;DHT22;22603;47.900;8.146;2023-09-12T02:58:31;13.70;99.90
36594;DHT22;22603;47.900;8.146;2023-09-12T03:01:19;13.70;99.90
36594;DHT22;22603;47.900;8.146;2023-09-12T03:04:06;13.70;99.90
36594;DHT22;22603;47.900;8.146;2023-09-12T03:06:53;13.70;99.90
36594;DHT22;22603;47.900;8.146;2023-09-12T03:09:41;13.70;99.90
36594;DHT22;22603;47.900;8.146;2023-09-12T03:12:28;13.60;99.90
36594;DHT22;22603;47.900;8.146;2023-09-12T03:15:14;13.60;99.90
36594;DHT22;22603;47.900;8.146;2023-09-12T03:18:01;13.60;99.90
36594;DHT22;22603;47.900;8.146;2023-09-12T03:20:48;13.60;99.90
36594;DHT22;22603;47.900;8.146;2023-09-12T03:23:35;13.60;99.90
36594;DHT22;22603;47.900;8.146;2023-09-12T03:26:24;13.60;99.90
36594;DHT22;22603;47.900;8.146;2023-09-12T03:29:10;13.50;99.90
36594;DHT22;22603;47.900;8.146;2023-09-12T03:31:57;13.50;99.90
36594;DHT22;22603;47.900;8.146;2023-09-12T03:34:44;13.40;99.90
36594;DHT22;22603;47.900;8.146;2023-09-12T03:37:30;13.40;99.90
36594;DHT22;22603;47.900;8.146;2023-09-12T03:40:17;13.30;99.90
36594;DHT22;22603;47.900;8.146;2023-09-12T03:43:05;13.30;99.90
36594;DHT22;22603;47.900;8.146;2023-09-12T03:45:52;13.30;99.90
36594;DHT22;22603;47.900;8.146;2023-09-12T03:48:40;13.20;99.90
36594;DHT22;22603;47.900;8.146;2023-09-12T03:51:27;13.20;99.90
36594;DHT22;22603;47.900;8.146;2023-09-12T03:54:14;13.20;99.90
36594;DHT22;22603;47.900;8.146;2023-09-12T03:57:02;13.10;99.90
36594;DHT22;22603;47.900;8.146;2023-09-12T03:59:50;13.10;99.90
36594;DHT22;22603;47.900;8.146;2023-09-12T04:02:38;13.00;99.90
36594;DHT22;22603;47.900;8.146;2023-09-12T04:05:25;13.00;99.90
36594;DHT22;22603;47.900;8.146;2023-09-12T04:08:12;13.00;99.90
36594;DHT22;22603;47.900;8.146;2023-09-12T04:10:59;13.00;99.90
36594;DHT22;22603;47.900;8.146;2023-09-12T04:13:45;12.90;99.90
36594;DHT22;22603;47.900;8.146;2023-09-12T04:16:33;12.90;99.90
36594;DHT22;22603;47.900;8.146;2023-09-12T04:19:20;12.90;99.90
36594;DHT22;22603;47.900;8.146;2023-09-12T04:22:07;12.90;99.90
36594;DHT22;22603;47.900;8.146;2023-09-12T04:24:53;12.90;99.90
36594;DHT22;22603;47.900;8.146;2023-09-12T04:27:41;12.90;99.90
36594;DHT22;22603;47.900;8.146;2023-09-12T04:30:28;12.90;99.90
36594;DHT22;22603;47.900;8.146;2023-09-12T04:33:16;12.90;99.90
36594;DHT22;22603;47.900;8.146;2023-09-12T04:36:03;12.80;99.90
36594;DHT22;22603;47.900;8.146;2023-09-12T04:38:50;12.80;99.90
36594;DHT22;22603;47.900;8.146;2023-09-12T04:41:36;12.80;99.90
36594;DHT22;22603;47.900;8.146;2023-09-12T04:44:24;12.80;99.90
36594;DHT22;22603;47.900;8.146;2023-09-12T04:47:10;12.80;99.90
36594;DHT22;22603;47.900;8.146;2023-09-12T04:49:59;12.80;99.90
36594;DHT22;22603;47.900;8.146;2023-09-12T04:52:46;12.80;99.90
36594;DHT22;22603;47.900;8.146;2023-09-12T04:55:35;12.80;99.90
36594;DHT22;22603;47.900;8.146;2023-09-12T04:58:22;12.80;99.90
36594;DHT22;22603;47.900;8.146;2023-09-12T05:01:08;12.80;99.90
36594;DHT22;22603;47.900;8.146;2023-09-12T05:03:55;12.80;99.90
36594;DHT22;22603;47.900;8.146;2023-09-12T05:06:44;12.80;99.90
36594;DHT22;22603;47.900;8.146;2023-09-12T05:09:30;12.90;99.90
36594;DHT22;22603;47.900;8.146;2023-09-12T05:12:17;12.90;99.90
36594;DHT22;22603;47.900;8.146;2023-09-12T05:15:04;13.00;99.90
36594;DHT22;22603;47.900;8.146;2023-09-12T05:17:51;13.00;99.90
36594;DHT22;22603;47.900;8.146;2023-09-12T05:20:37;13.10;99.90
36594;DHT22;22603;47.900;8.146;2023-09-12T05:23:25;13.10;99.90
36594;DHT22;22603;47.900;8.146;2023-09-12T05:26:12;13.20;99.90
36594;DHT22;22603;47.900;8.146;2023-09-12T05:28:59;13.20;99.90
36594;DHT22;22603;47.900;8.146;2023-09-12T05:31:45;13.20;99.90
36594;DHT22;22603;47.900;8.146;2023-09-12T05:34:32;13.20;99.90
36594;DHT22;22603;47.900;8.146;2023-09-12T05:37:19;13.30;99.90
36594;DHT22;22603;47.900;8.146;2023-09-12T05:40:08;13.30;99.90
36594;DHT22;22603;47.900;8.146;2023-09-12T05:42:55;13.40;99.90
36594;DHT22;22603;47.900;8.146;2023-09-12T05:45:42;13.50;99.90
36594;DHT22;22603;47.900;8.146;2023-09-12T05:48:29;13.50;99.90
36594;DHT22;22603;47.900;8.146;2023-09-12T05:51:16;13.60;99.90
36594;DHT22;22603;47.900;8.146;2023-09-12T05:54:02;13.60;99.90
36594;DHT22;22603;47.900;8.146;2023-09-12T05:56:50;13.70;99.90
36594;DHT22;22603;47.900;8.146;2023-09-12T05:59:38;13.80;99.90
36594;DHT22;22603;47.900;8.146;2023-09-12T06:02:25;13.90;99.90
36594;DHT22;22603;47.900;8.146;2023-09-12T06:05:12;14.00;99.90
36594;DHT22;22603;47.900;8.146;2023-09-12T06:07:59;14.10;99.90
36594;DHT22;22603;47.900;8.146;2023-09-12T06:10:45;14.20;99.90
36594;DHT22;22603;47.900;8.146;2023-09-12T06:13:35;14.20;99.90
36594;DHT22;22603;47.900;8.146;2023-09-12T06:16:23;14.40;99.90
36594;DHT22;22603;47.900;8.146;2023-09-12T06:19:10;14.50;99.90
36594;DHT22;22603;47.900;8.146;2023-09-12T06:21:56;14.70;99.90
36594;DHT22;22603;47.900;8.146;2023-09-12T06:24:44;14.80;99.90
36594;DHT22;22603;47.900;8.146;2023-09-12T06:27:30;15.00;99.90
36594;DHT22;22603;47.900;8.146;2023-09-12T06:30:21;15.10;99.90
36594;DHT22;22603;47.900;8.146;2023-09-12T06:33:07;15.20;99.90
36594;DHT22;22603;47.900;8.146;2023-09-12T06:35:55;15.40;99.90
36594;DHT22;22603;47.900;8.146;2023-09-12T06:38:41;15.60;99.90
36594;DHT22;22603;47.900;8.146;2023-09-12T06:41:29;15.80;99.90
36594;DHT22;22603;47.900;8.146;2023-09-12T06:44:18;16.00;99.90
36594;DHT22;22603;47.900;8.146;2023-09-12T06:47:06;16.50;99.90
36594;DHT22;22603;47.900;8.146;2023-09-12T06:49:54;17.30;99.90
36594;DHT22;22603;47.900;8.146;2023-09-12T06:52:41;17.90;99.90
36594;DHT22;22603;47.900;8.146;2023-09-12T06:55:28;18.60;99.90
36594;DHT22;22603;47.900;8.146;2023-09-12T06:58:19;19.50;99.90
36594;DHT22;22603;47.900;8.146;2023-09-12T07:01:06;20.00;99.90
36594;DHT22;22603;47.900;8.146;2023-09-12T07:03:55;20.30;99.90
36594;DHT22;22603;47.900;8.146;2023-09-12T07:06:42;20.70;99.90
36594;DHT22;22603;47.900;8.146;2023-09-12T07:09:29;20.90;99.90
36594;DHT22;22603;47.900;8.146;2023-09-12T07:12:15;22.00;99.90
36594;DHT22;22603;47.900;8.146;2023-09-12T07:15:03;22.60;99.90
36594;DHT22;22603;47.900;8.146;2023-09-12T07:17:50;22.90;99.90
36594;DHT22;22603;47.900;8.146;2023-09-12T07:20:38;23.70;99.90
36594;DHT22;22603;47.900;8.146;2023-09-12T07:23:25;23.10;99.90
36594;DHT22;22603;47.900;8.146;2023-09-12T07:26:12;23.20;99.90
36594;DHT22;22603;47.900;8.146;2023-09-12T07:29:00;23.30;99.90
36594;DHT22;22603;47.900;8.146;2023-09-12T07:31:52;23.20;99.90
36594;DHT22;22603;47.900;8.146;2023-09-12T07:34:39;22.90;99.90
36594;DHT22;22603;47.900;8.146;2023-09-12T07:37:29;22.80;99.90
36594;DHT22;22603;47.900;8.146;2023-09-12T07:40:16;22.80;99.90
36594;DHT22;22603;47.900;8.146;2023-09-12T07:43:03;22.70;99.90
36594;DHT22;22603;47.900;8.146;2023-09-12T07:45:54;23.60;99.90
36594;DHT22;22603;47.900;8.146;2023-09-12T07:48:41;23.90;99.90
36594;DHT22;22603;47.900;8.146;2023-09-12T07:51:28;23.70;99.90
36594;DHT22;22603;47.900;8.146;2023-09-12T07:54:16;22.50;99.90
36594;DHT22;22603;47.900;8.146;2023-09-12T07:57:03;21.90;99.90
36594;DHT22;22603;47.900;8.146;2023-09-12T07:59:50;21.30;99.90
36594;DHT22;22603;47.900;8.146;2023-09-12T08:02:37;21.00;99.90
36594;DHT22;22603;47.900;8.146;2023-09-12T08:05:23;20.80;99.90
36594;DHT22;22603;47.900;8.146;2023-09-12T08:08:10;20.60;99.90
36594;DHT22;22603;47.900;8.146;2023-09-12T08:10:58;20.40;99.90
36594;DHT22;22603;47.900;8.146;2023-09-12T08:13:48;20.40;99.90
36594;DHT22;22603;47.900;8.146;2023-09-12T08:16:34;20.60;99.90
36594;DHT22;22603;47.900;8.146;2023-09-12T08:19:21;21.20;99.90
36594;DHT22;22603;47.900;8.146;2023-09-12T08:22:09;21.40;99.90
36594;DHT22;22603;47.900;8.146;2023-09-12T08:24:56;21.90;99.90
36594;DHT22;22603;47.900;8.146;2023-09-12T08:27:44;22.20;99.90
36594;DHT22;22603;47.900;8.146;2023-09-12T08:30:31;22.60;99.90
36594;DHT22;22603;47.900;8.146;2023-09-12T08:33:18;23.20;99.90
36594;DHT22;22603;47.900;8.146;2023-09-12T08:36:08;24.00;99.90
36594;DHT22;22603;47.900;8.146;2023-09-12T08:38:55;24.10;99.90
36594;DHT22;22603;47.900;8.146;2023-09-12T08:41:42;24.70;99.90
36594;DHT22;22603;47.900;8.146;2023-09-12T08:44:30;25.40;99.90
36594;DHT22;22603;47.900;8.146;2023-09-12T08:47:17;25.90;99.90
36594;DHT22;22603;47.900;8.146;2023-09-12T08:50:07;25.80;99.90
36594;DHT22;22603;47.900;8.146;2023-09-12T08:52:55;26.20;99.90
36594;DHT22;22603;47.900;8.146;2023-09-12T08:55:53;26.70;99.90
36594;DHT22;22603;47.900;8.146;2023-09-12T08:58:43;28.20;99.90
36594;DHT22;22603;47.900;8.146;2023-09-12T09:01:31;29.50;99.90
36594;DHT22;22603;47.900;8.146;2023-09-12T09:04:19;30.80;99.90
36594;DHT22;22603;47.900;8.146;2023-09-12T09:07:07;31.30;99.90
36594;DHT22;22603;47.900;8.146;2023-09-12T09:09:55;31.70;99.90
36594;DHT22;22603;47.900;8.146;2023-09-12T09:12:45;32.00;99.90
36594;DHT22;22603;47.900;8.146;2023-09-12T09:15:32;30.50;99.90
36594;DHT22;22603;47.900;8.146;2023-09-12T09:18:21;29.50;99.90
36594;DHT22;22603;47.900;8.146;2023-09-12T09:21:17;29.10;99.90
36594;DHT22;22603;47.900;8.146;2023-09-12T09:24:07;28.50;99.90
36594;DHT22;22603;47.900;8.146;2023-09-12T09:26:55;28.40;99.90
36594;DHT22;22603;47.900;8.146;2023-09-12T09:29:47;28.50;99.90
36594;DHT22;22603;47.900;8.146;2023-09-12T09:32:34;28.60;99.90
36594;DHT22;22603;47.900;8.146;2023-09-12T09:35:22;29.10;99.90
36594;DHT22;22603;47.900;8.146;2023-09-12T09:38:10;29.80;99.90
36594;DHT22;22603;47.900;8.146;2023-09-12T09:41:04;30.50;99.90
36594;DHT22;22603;47.900;8.146;2023-09-12T09:43:52;31.10;99.90
36594;DHT22;22603;47.900;8.146;2023-09-12T09:46:43;31.70;99.90
36594;DHT22;22603;47.900;8.146;2023-09-12T09:49:31;32.20;99.90
36594;DHT22;22603;47.900;8.146;2023-09-12T09:52:26;33.30;99.90
36594;DHT22;22603;47.900;8.146;2023-09-12T09:55:13;33.80;99.90
36594;DHT22;22603;47.900;8.146;2023-09-12T09:58:01;34.30;99.90
36594;DHT22;22603;47.900;8.146;2023-09-12T10:00:48;34.70;99.90
36594;DHT22;22603;47.900;8.146;2023-09-12T10:03:37;35.00;99.90
36594;DHT22;22603;47.900;8.146;2023-09-12T10:06:25;35.20;99.90
36594;DHT22;22603;47.900;8.146;2023-09-12T10:09:14;35.60;99.90
36594;DHT22;22603;47.900;8.146;2023-09-12T10:12:03;35.70;99.90
36594;DHT22;22603;47.900;8.146;2023-09-12T10:14:49;35.70;99.90
36594;DHT22;22603;47.900;8.146;2023-09-12T10:17:37;36.20;99.90
36594;DHT22;22603;47.900;8.146;2023-09-12T10:20:28;36.40;99.90
36594;DHT22;22603;47.900;8.146;2023-09-12T10:23:26;36.20;99.90
36594;DHT22;22603;47.900;8.146;2023-09-12T10:26:15;35.80;99.90
36594;DHT22;22603;47.900;8.146;2023-09-12T10:29:05;35.90;99.90
36594;DHT22;22603;47.900;8.146;2023-09-12T10:31:52;35.70;99.90
36594;DHT22;22603;47.900;8.146;2023-09-12T10:34:39;36.10;99.90
36594;DHT22;22603;47.900;8.146;2023-09-12T10:37:32;36.30;99.90
36594;DHT22;22603;47.900;8.146;2023-09-12T10:40:22;36.30;99.90
36594;DHT22;22603;47.900;8.146;2023-09-12T10:43:10;36.00;99.90
36594;DHT22;22603;47.900;8.146;2023-09-12T10:45:58;36.30;99.90
36594;DHT22;22603;47.900;8.146;2023-09-12T10:48:49;36.20;99.90
36594;DHT22;22603;47.900;8.146;2023-09-12T10:51:38;36.00;99.90
36594;DHT22;22603;47.900;8.146;2023-09-12T10:54:36;36.50;99.90
36594;DHT22;22603;47.900;8.146;2023-09-12T10:57:23;36.40;99.90
36594;DHT22;22603;47.900;8.146;2023-09-12T11:00:13;36.40;99.90
36594;DHT22;22603;47.900;8.146;2023-09-12T11:03:35;36.60;99.90
36594;DHT22;22603;47.900;8.146;2023-09-12T11:06:28;36.40;99.90
36594;DHT22;22603;47.900;8.146;2023-09-12T11:09:21;36.10;99.90
36594;DHT22;22603;47.900;8.146;2023-09-12T11:12:35;36.00;99.90
36594;DHT22;22603;47.900;8.146;2023-09-12T11:15:25;36.00;99.90
36594;DHT22;22603;47.900;8.146;2023-09-12T11:18:11;35.70;99.90
36594;DHT22;22603;47.900;8.146;2023-09-12T11:21:00;35.60;99.90
36594;DHT22;22603;47.900;8.146;2023-09-12T11:23:54;35.80;99.90
36594;DHT22;22603;47.900;8.146;2023-09-12T11:26:53;35.70;99.90
36594;DHT22;22603;47.900;8.146;2023-09-12T11:29:40;35.10;99.90
36594;DHT22;22603;47.900;8.146;2023-09-12T11:32:31;34.70;99.90
36594;DHT22;22603;47.900;8.146;2023-09-12T11:35:22;35.00;99.90
36594;DHT22;22603;47.900;8.146;2023-09-12T11:38:10;34.90;99.90
36594;DHT22;22603;47.900;8.146;2023-09-12T11:40:58;35.10;99.90
36594;DHT22;22603;47.900;8.146;2023-09-12T11:43:45;35.00;99.90
36594;DHT22;22603;47.900;8.146;2023-09-12T11:46:35;35.10;99.90
36594;DHT22;22603;47.900;8.146;2023-09-12T11:49:23;34.40;99.90
36594;DHT22;22603;47.900;8.146;2023-09-12T11:52:12;34.80;99.90
36594;DHT22;22603;47.900;8.146;2023-09-12T11:55:00;35.00;99.90
36594;DHT22;22603;47.900;8.146;2023-09-12T11:57:46;35.10;99.90
36594;DHT22;22603;47.900;8.146;2023-09-12T12:00:33;34.90;99.90
36594;DHT22;22603;47.900;8.146;2023-09-12T12:03:21;35.00;99.90
36594;DHT22;22603;47.900;8.146;2023-09-12T12:06:10;35.10;99.90
36594;DHT22;22603;47.900;8.146;2023-09-12T12:08:58;34.40;99.90
36594;DHT22;22603;47.900;8.146;2023-09-12T12:11:45;34.10;99.90
36594;DHT22;22603;47.900;8.146;2023-09-12T12:14:34;33.80;99.90
36594;DHT22;22603;47.900;8.146;2023-09-12T12:17:21;33.40;99.90
36594;DHT22;22603;47.900;8.146;2023-09-12T12:20:10;33.50;99.90
36594;DHT22;22603;47.900;8.146;2023-09-12T12:22:58;33.70;99.90
36594;DHT22;22603;47.900;8.146;2023-09-12T12:25:45;34.10;99.90
36594;DHT22;22603;47.900;8.146;2023-09-12T12:28:32;34.30;99.90
36594;DHT22;22603;47.900;8.146;2023-09-12T12:31:20;34.00;99.90
36594;DHT22;22603;47.900;8.146;2023-09-12T12:34:11;34.30;99.90
36594;DHT22;22603;47.900;8.146;2023-09-12T12:37:18;34.40;99.90
36594;DHT22;22603;47.900;8.146;2023-09-12T12:40:11;34.20;99.90
36594;DHT22;22603;47.900;8.146;2023-09-12T12:42:59;34.20;99.90
36594;DHT22;22603;47.900;8.146;2023-09-12T12:45:53;34.00;99.90
36594;DHT22;22603;47.900;8.146;2023-09-12T12:48:43;32.90;99.90
36594;DHT22;22603;47.900;8.146;2023-09-12T12:51:33;33.30;99.90
36594;DHT22;22603;47.900;8.146;2023-09-12T12:54:22;33.00;99.90
36594;DHT22;22603;47.900;8.146;2023-09-12T12:57:12;33.20;99.90
36594;DHT22;22603;47.900;8.146;2023-09-12T13:00:00;33.30;99.90
36594;DHT22;22603;47.900;8.146;2023-09-12T13:02:49;33.10;99.90
36594;DHT22;22603;47.900;8.146;2023-09-12T13:05:36;33.10;99.90
36594;DHT22;22603;47.900;8.146;2023-09-12T13:08:24;33.00;99.90
36594;DHT22;22603;47.900;8.146;2023-09-12T13:11:16;32.80;99.90
36594;DHT22;22603;47.900;8.146;2023-09-12T13:14:05;32.80;99.90
36594;DHT22;22603;47.900;8.146;2023-09-12T13:16:55;32.30;99.90
36594;DHT22;22603;47.900;8.146;2023-09-12T13:19:42;32.50;99.90
36594;DHT22;22603;47.900;8.146;2023-09-12T13:22:28;32.20;99.90
36594;DHT22;22603;47.900;8.146;2023-09-12T13:25:16;32.10;99.90
36594;DHT22;22603;47.900;8.146;2023-09-12T13:28:03;32.00;99.90
36594;DHT22;22603;47.900;8.146;2023-09-12T13:30:51;31.90;99.90
36594;DHT22;22603;47.900;8.146;2023-09-12T13:33:38;31.60;99.90
36594;DHT22;22603;47.900;8.146;2023-09-12T13:36:25;31.50;99.90
36594;DHT22;22603;47.900;8.146;2023-09-12T13:39:12;31.60;99.90
36594;DHT22;22603;47.900;8.146;2023-09-12T13:41:59;31.40;99.90
36594;DHT22;22603;47.900;8.146;2023-09-12T13:44:48;31.20;99.90
36594;DHT22;22603;47.900;8.146;2023-09-12T13:47:37;31.20;99.90
36594;DHT22;22603;47.900;8.146;2023-09-12T13:50:24;30.80;99.90
36594;DHT22;22603;47.900;8.146;2023-09-12T13:53:13;30.50;99.90
36594;DHT22;22603;47.900;8.146;2023-09-12T13:56:00;30.70;99.90
36594;DHT22;22603;47.900;8.146;2023-09-12T13:58:47;30.80;99.90
36594;DHT22;22603;47.900;8.146;2023-09-12T14:01:34;30.40;99.90
36594;DHT22;22603;47.900;8.146;2023-09-12T14:04:22;29.70;99.90
36594;DHT22;22603;47.900;8.146;2023-09-12T14:07:10;29.80;99.90
36594;DHT22;22603;47.900;8.146;2023-09-12T14:09:58;29.60;99.90
36594;DHT22;22603;47.900;8.146;2023-09-12T14:12:45;29.40;99.90
36594;DHT22;22603;47.900;8.146;2023-09-12T14:15:31;29.50;99.90
36594;DHT22;22603;47.900;8.146;2023-09-12T14:18:20;29.40;99.90
36594;DHT22;22603;47.900;8.146;2023-09-12T14:21:10;29.50;99.90
36594;DHT22;22603;47.900;8.146;2023-09-12T14:23:58;29.30;99.90
36594;DHT22;22603;47.900;8.146;2023-09-12T14:26:46;29.30;99.90
36594;DHT22;22603;47.900;8.146;2023-09-12T14:29:34;29.20;99.90
36594;DHT22;22603;47.900;8.146;2023-09-12T14:32:21;29.20;99.90
36594;DHT22;22603;47.900;8.146;2023-09-12T14:35:08;29.10;99.90
36594;DHT22;22603;47.900;8.146;2023-09-12T14:37:56;29.10;99.90
36594;DHT22;22603;47.900;8.146;2023-09-12T14:40:44;29.20;99.90
36594;DHT22;22603;47.900;8.146;2023-09-12T14:43:31;29.10;99.90
36594;DHT22;22603;47.900;8.146;2023-09-12T14:46:18;29.30;99.90
36594;DHT22;22603;47.900;8.146;2023-09-12T14:49:04;29.30;99.90
36594;DHT22;22603;47.900;8.146;2023-09-12T14:51:51;29.30;99.90
36594;DHT22;22603;47.900;8.146;2023-09-12T14:54:39;29.40;99.90
36594;DHT22;22603;47.900;8.146;2023-09-12T14:57:26;29.40;99.90
36594;DHT22;22603;47.900;8.146;2023-09-12T15:00:13;29.30;99.90
36594;DHT22;22603;47.900;8.146;2023-09-12T15:03:00;28.90;99.90
36594;DHT22;22603;47.900;8.146;2023-09-12T15:05:48;29.00;99.90
36594;DHT22;22603;47.900;8.146;2023-09-12T15:08:34;29.10;99.90
36594;DHT22;22603;47.900;8.146;2023-09-12T15:11:23;29.30;99.90
36594;DHT22;22603;47.900;8.146;2023-09-12T15:14:10;29.30;99.90
36594;DHT22;22603;47.900;8.146;2023-09-12T15:16:56;29.20;99.90
36594;DHT22;22603;47.900;8.146;2023-09-12T15:19:45;29.20;99.90
36594;DHT22;22603;47.900;8.146;2023-09-12T15:22:32;29.20;99.90
36594;DHT22;22603;47.900;8.146;2023-09-12T15:25:19;29.30;99.90
36594;DHT22;22603;47.900;8.146;2023-09-12T15:28:08;29.00;99.90
36594;DHT22;22603;47.900;8.146;2023-09-12T15:30:54;29.30;99.90
36594;DHT22;22603;47.900;8.146;2023-09-12T15:33:42;29.20;99.90
36594;DHT22;22603;47.900;8.146;2023-09-12T15:36:35;29.30;99.90
36594;DHT22;22603;47.900;8.146;2023-09-12T15:39:23;29.40;99.90
36594;DHT22;22603;47.900;8.146;2023-09-12T15:42:10;29.50;99.90
36594;DHT22;22603;47.900;8.146;2023-09-12T15:45:18;29.10;99.90
36594;DHT22;22603;47.900;8.146;2023-09-12T15:48:06;29.10;99.90
36594;DHT22;22603;47.900;8.146;2023-09-12T15:50:54;29.10;99.90
36594;DHT22;22603;47.900;8.146;2023-09-12T15:53:41;28.90;99.90
36594;DHT22;22603;47.900;8.146;2023-09-12T15:56:28;28.80;99.90
36594;DHT22;22603;47.900;8.146;2023-09-12T15:59:15;28.70;99.90
36594;DHT22;22603;47.900;8.146;2023-09-12T16:02:04;28.40;99.90
36594;DHT22;22603;47.900;8.146;2023-09-12T16:04:51;27.90;99.90
36594;DHT22;22603;47.900;8.146;2023-09-12T16:07:38;27.60;99.90
36594;DHT22;22603;47.900;8.146;2023-09-12T16:10:25;27.30;99.90
36594;DHT22;22603;47.900;8.146;2023-09-12T16:13:12;27.10;99.90
36594;DHT22;22603;47.900;8.146;2023-09-12T16:15:58;26.90;99.90
36594;DHT22;22603;47.900;8.146;2023-09-12T16:18:46;26.90;99.90
36594;DHT22;22603;47.900;8.146;2023-09-12T16:21:34;26.80;99.90
36594;DHT22;22603;47.900;8.146;2023-09-12T16:24:23;26.60;99.90
36594;DHT22;22603;47.900;8.146;2023-09-12T16:27:10;26.40;99.90
36594;DHT22;22603;47.900;8.146;2023-09-12T16:29:57;26.20;99.90
36594;DHT22;22603;47.900;8.146;2023-09-12T16:32:44;26.10;99.90
36594;DHT22;22603;47.900;8.146;2023-09-12T16:35:33;25.90;99.90
36594;DHT22;22603;47.900;8.146;2023-09-12T16:38:20;25.80;99.90
36594;DHT22;22603;47.900;8.146;2023-09-12T16:41:06;25.50;99.90
36594;DHT22;22603;47.900;8.146;2023-09-12T16:43:53;25.30;99.90
36594;DHT22;22603;47.900;8.146;2023-09-12T16:46:40;25.20;99.90
36594;DHT22;22603;47.900;8.146;2023-09-12T16:49:27;25.00;99.90
36594;DHT22;22603;47.900;8.146;2023-09-12T16:52:15;24.80;99.90
36594;DHT22;22603;47.900;8.146;2023-09-12T16:55:02;24.90;99.90
36594;DHT22;22603;47.900;8.146;2023-09-12T16:57:49;24.80;99.90
36594;DHT22;22603;47.900;8.146;2023-09-12T17:00:36;24.80;99.90
36594;DHT22;22603;47.900;8.146;2023-09-12T17:03:23;24.70;99.90
36594;DHT22;22603;47.900;8.146;2023-09-12T17:06:10;24.60;99.90
36594;DHT22;22603;47.900;8.146;2023-09-12T17:08:59;24.50;99.90
36594;DHT22;22603;47.900;8.146;2023-09-12T17:11:48;24.30;99.90
36594;DHT22;22603;47.900;8.146;2023-09-12T17:14:36;24.20;99.90
36594;DHT22;22603;47.900;8.146;2023-09-12T17:17:23;24.10;99.90
36594;DHT22;22603;47.900;8.146;2023-09-12T17:20:10;23.90;99.90
36594;DHT22;22603;47.900;8.146;2023-09-12T17:22:58;23.80;99.90
36594;DHT22;22603;47.900;8.146;2023-09-12T17:25:47;23.60;99.90
36594;DHT22;22603;47.900;8.146;2023-09-12T17:28:33;23.40;99.90
36594;DHT22;22603;47.900;8.146;2023-09-12T17:31:20;23.30;99.90
36594;DHT22;22603;47.900;8.146;2023-09-12T17:34:07;23.20;99.90
36594;DHT22;22603;47.900;8.146;2023-09-12T17:36:54;23.10;99.90
36594;DHT22;22603;47.900;8.146;2023-09-12T17:39:41;22.80;99.90
36594;DHT22;22603;47.900;8.146;2023-09-12T17:42:29;22.70;99.90
36594;DHT22;22603;47.900;8.146;2023-09-12T17:45:16;22.70;99.90